createdAt,value
2022-11-29T00:00:06.867Z,8.50
2022-11-29T00:00:50.576Z,8.30
2022-11-29T00:01:35.985Z,8.50
2022-11-29T00:02:17.783Z,8.50
2022-11-29T00:03:02.462Z,8.40
2022-11-29T00:03:44.382Z,8.40
2022-11-29T00:04:28.424Z,8.70
2022-11-29T00:05:10.150Z,8.70
2022-11-29T00:06:35.470Z,8.30
2022-11-29T00:07:17.183Z,8.80
2022-11-29T00:08:41.904Z,8.30
2022-11-29T00:09:27.442Z,8.30
2022-11-29T00:10:09.508Z,8.60
2022-11-29T00:10:51.368Z,8.30
2022-11-29T00:11:56.501Z,8.80
2022-11-29T00:12:38.134Z,8.90
2022-11-29T00:13:19.812Z,8.60
2022-11-29T00:14:02.110Z,8.80
2022-11-29T00:14:44.287Z,8.80
2022-11-29T00:15:26.180Z,8.90
2022-11-29T00:16:59.106Z,8.70
2022-11-29T00:17:41.001Z,8.80
2022-11-29T00:18:22.705Z,8.40
2022-11-29T00:19:04.411Z,8.40
2022-11-29T00:19:46.099Z,8.70
2022-11-29T00:20:27.799Z,8.30
2022-11-29T00:21:09.848Z,8.40
2022-11-29T00:21:51.563Z,8.80
2022-11-29T00:22:33.213Z,8.50
2022-11-29T00:23:14.838Z,8.60
2022-11-29T00:24:38.625Z,8.60
2022-11-29T00:25:20.322Z,8.40
2022-11-29T00:26:08.064Z,8.70
2022-11-29T00:27:32.297Z,8.80
2022-11-29T00:28:13.987Z,8.60
2022-11-29T00:28:55.950Z,8.30
2022-11-29T00:29:37.607Z,8.60
2022-11-29T00:30:20.690Z,8.30
2022-11-29T00:31:14.269Z,8.70
2022-11-29T00:31:55.984Z,8.50
2022-11-29T00:33:19.703Z,8.70
2022-11-29T00:34:04.828Z,8.80
2022-11-29T00:34:46.566Z,8.40
2022-11-29T00:35:28.412Z,8.80
2022-11-29T00:36:11.010Z,8.80
2022-11-29T00:36:52.686Z,8.40
2022-11-29T00:37:34.380Z,8.70
2022-11-29T00:38:16.190Z,8.50
2022-11-29T00:38:57.968Z,8.80
2022-11-29T00:39:41.031Z,8.50
2022-11-29T00:40:22.727Z,8.70
2022-11-29T00:41:04.871Z,8.20
2022-11-29T00:41:46.621Z,8.30
2022-11-29T00:42:28.292Z,8.20
2022-11-29T00:43:10.060Z,8.70
2022-11-29T00:43:51.820Z,8.70
2022-11-29T00:44:33.579Z,8.20
2022-11-29T00:45:15.348Z,8.60
2022-11-29T00:45:57.142Z,8.00
2022-11-29T00:46:38.844Z,8.60
2022-11-29T00:47:20.640Z,8.50
2022-11-29T00:48:02.283Z,8.70
2022-11-29T00:49:26.112Z,8.70
2022-11-29T00:50:08.149Z,8.60
2022-11-29T00:50:49.791Z,8.50
2022-11-29T00:51:31.773Z,8.80
2022-11-29T00:52:13.439Z,8.50
2022-11-29T00:52:55.075Z,8.90
2022-11-29T00:53:37.783Z,8.70
2022-11-29T00:54:19.505Z,8.70
2022-11-29T00:55:01.171Z,8.90
2022-11-29T00:55:45.152Z,8.80
2022-11-29T00:56:26.876Z,8.60
2022-11-29T00:57:08.507Z,8.70
2022-11-29T00:57:50.211Z,8.90
2022-11-29T00:58:32.629Z,8.80
2022-11-29T00:59:14.271Z,8.60
2022-11-29T00:59:55.927Z,8.50
2022-11-29T01:00:37.629Z,8.70
2022-11-29T01:01:19.533Z,8.90
2022-11-29T01:02:01.397Z,8.40
2022-11-29T01:02:43.097Z,8.70
2022-11-29T01:03:25.216Z,8.80
2022-11-29T01:04:49.232Z,8.70
2022-11-29T01:05:31.854Z,8.40
2022-11-29T01:06:16.829Z,8.70
2022-11-29T01:06:58.489Z,8.80
2022-11-29T01:07:40.234Z,8.70
2022-11-29T01:08:21.989Z,8.60
2022-11-29T01:09:04.597Z,8.90
2022-11-29T01:09:46.308Z,8.40
2022-11-29T01:10:27.994Z,8.50
2022-11-29T01:11:23.836Z,8.50
2022-11-29T01:12:05.694Z,8.80
2022-11-29T01:12:47.377Z,8.60
2022-11-29T01:13:29.105Z,8.40
2022-11-29T01:14:12.121Z,8.40
2022-11-29T01:14:53.789Z,8.40
2022-11-29T01:15:36.423Z,8.80
2022-11-29T01:16:18.372Z,8.40
2022-11-29T01:17:00.186Z,8.30
2022-11-29T01:17:42.251Z,8.80
2022-11-29T01:19:07.272Z,9.00
2022-11-29T01:19:51.014Z,8.50
2022-11-29T01:21:17.976Z,8.70
2022-11-29T01:21:59.622Z,8.40
2022-11-29T01:22:41.613Z,8.70
2022-11-29T01:23:23.323Z,9.00
2022-11-29T01:24:05.275Z,8.90
2022-11-29T01:24:47.037Z,8.90
2022-11-29T01:25:29.309Z,8.50
2022-11-29T01:26:15.430Z,8.90
2022-11-29T01:26:57.097Z,8.70
2022-11-29T01:27:39.124Z,8.80
2022-11-29T01:29:44.951Z,8.80
2022-11-29T01:30:26.697Z,8.50
2022-11-29T01:31:20.058Z,8.80
2022-11-29T01:32:01.697Z,8.50
2022-11-29T01:32:43.363Z,8.70
2022-11-29T01:33:25.137Z,9.20
2022-11-29T01:34:07.504Z,8.80
2022-11-29T01:35:31.294Z,8.90
2022-11-29T01:36:13.914Z,8.70
2022-11-29T01:36:55.641Z,8.70
2022-11-29T01:37:37.324Z,8.50
2022-11-29T01:39:02.806Z,8.60
2022-11-29T01:39:44.528Z,9.00
2022-11-29T01:40:26.156Z,8.70
2022-11-29T01:41:12.951Z,8.90
2022-11-29T01:41:55.002Z,8.60
2022-11-29T01:42:36.641Z,8.70
2022-11-29T01:43:18.634Z,8.70
2022-11-29T01:45:03.814Z,8.70
2022-11-29T01:45:45.488Z,8.90
2022-11-29T01:46:35.382Z,8.80
2022-11-29T01:47:18.568Z,9.00
2022-11-29T01:48:00.821Z,9.00
2022-11-29T01:48:42.476Z,8.80
2022-11-29T01:49:27.296Z,8.90
2022-11-29T01:50:09.859Z,8.90
2022-11-29T01:50:53.050Z,8.60
2022-11-29T01:51:37.404Z,8.90
2022-11-29T01:52:28.633Z,8.50
2022-11-29T01:53:13.268Z,9.00
2022-11-29T01:53:55.522Z,9.00
2022-11-29T01:54:44.629Z,8.90
2022-11-29T01:55:26.816Z,8.50
2022-11-29T01:56:52.709Z,8.60
2022-11-29T01:57:36.703Z,9.00
2022-11-29T01:58:18.610Z,8.70
2022-11-29T01:59:04.394Z,9.10
2022-11-29T01:59:49.825Z,9.10
2022-11-29T02:00:32.412Z,8.60
2022-11-29T02:01:14.963Z,8.70
2022-11-29T02:02:06.528Z,8.50
2022-11-29T02:03:03.643Z,8.60
2022-11-29T02:03:45.315Z,8.80
2022-11-29T02:04:27.183Z,9.00
2022-11-29T02:05:10.103Z,9.10
2022-11-29T02:05:53.065Z,9.10
2022-11-29T02:06:35.707Z,8.90
2022-11-29T02:07:17.622Z,9.00
2022-11-29T02:08:01.212Z,9.10
2022-11-29T02:08:44.166Z,9.10
2022-11-29T02:09:25.840Z,8.80
2022-11-29T02:10:08.105Z,9.00
2022-11-29T02:11:28.893Z,8.90
2022-11-29T02:12:25.600Z,9.20
2022-11-29T02:13:22.042Z,9.00
2022-11-29T02:14:34.304Z,9.10
2022-11-29T02:15:43.712Z,8.60
2022-11-29T02:17:02.736Z,9.10
2022-11-29T02:18:05.101Z,8.60
2022-11-29T02:19:09.196Z,8.90
2022-11-29T02:20:27.758Z,8.80
2022-11-29T02:21:12.349Z,8.80
2022-11-29T02:22:16.775Z,9.00
2022-11-29T02:23:58.289Z,9.00
2022-11-29T02:25:45.407Z,9.00
2022-11-29T02:26:38.939Z,9.20
2022-11-29T02:27:55.987Z,9.10
2022-11-29T02:28:43.173Z,9.20
2022-11-29T02:29:40.529Z,9.00
2022-11-29T02:30:46.895Z,8.80
2022-11-29T02:31:57.900Z,9.10
2022-11-29T02:33:02.927Z,9.00
2022-11-29T02:34:11.273Z,8.70
2022-11-29T02:35:13.863Z,8.80
2022-11-29T02:36:16.460Z,9.00
2022-11-29T02:37:45.696Z,9.00
2022-11-29T02:38:46.272Z,9.10
2022-11-29T02:39:56.726Z,8.70
2022-11-29T02:41:02.967Z,9.00
2022-11-29T02:42:06.195Z,8.90
2022-11-29T02:43:41.854Z,8.60
2022-11-29T02:44:44.379Z,9.20
2022-11-29T02:45:52.619Z,8.90
2022-11-29T02:47:02.148Z,9.10
2022-11-29T02:48:09.671Z,8.70
2022-11-29T02:49:00.146Z,8.90
2022-11-29T02:50:03.081Z,8.80
2022-11-29T02:51:15.776Z,8.60
2022-11-29T02:52:02.300Z,8.70
2022-11-29T02:53:15.383Z,9.00
2022-11-29T02:54:17.006Z,9.10
2022-11-29T02:55:06.590Z,8.80
2022-11-29T02:56:07.410Z,9.00
2022-11-29T02:57:36.600Z,9.10
2022-11-29T02:58:32.265Z,9.10
2022-11-29T02:59:32.618Z,9.10
2022-11-29T03:00:18.964Z,9.10
2022-11-29T03:01:12.435Z,8.70
2022-11-29T03:02:15.795Z,9.20
2022-11-29T03:03:06.990Z,9.20
2022-11-29T03:03:53.330Z,9.10
2022-11-29T03:04:45.604Z,8.70
2022-11-29T03:05:50.598Z,9.10
2022-11-29T03:06:43.866Z,9.00
2022-11-29T03:07:49.835Z,9.00
2022-11-29T03:09:37.529Z,9.30
2022-11-29T03:10:40.080Z,8.90
2022-11-29T03:11:40.322Z,9.20
2022-11-29T03:12:38.220Z,8.90
2022-11-29T03:13:49.670Z,9.10
2022-11-29T03:14:57.403Z,9.30
2022-11-29T03:15:51.326Z,9.30
2022-11-29T03:16:56.438Z,8.80
2022-11-29T03:17:49.351Z,9.10
2022-11-29T03:18:59.035Z,9.10
2022-11-29T03:19:59.192Z,8.80
2022-11-29T03:20:55.151Z,9.10
2022-11-29T03:21:44.026Z,8.90
2022-11-29T03:22:48.197Z,9.10
2022-11-29T03:23:50.901Z,9.10
2022-11-29T03:24:37.672Z,9.10
2022-11-29T03:25:43.713Z,9.00
2022-11-29T03:26:51.675Z,9.10
2022-11-29T03:27:46.557Z,9.20
2022-11-29T03:28:49.077Z,9.10
2022-11-29T03:29:40.371Z,9.30
2022-11-29T03:30:22.335Z,8.70
2022-11-29T03:31:18.955Z,8.90
2022-11-29T03:32:05.474Z,9.30
2022-11-29T03:33:04.433Z,9.20
2022-11-29T03:33:54.796Z,9.20
2022-11-29T03:34:56.912Z,8.80
2022-11-29T03:35:57.388Z,8.80
2022-11-29T03:38:01.176Z,9.20
2022-11-29T03:38:46.399Z,8.90
2022-11-29T03:39:38.966Z,9.00
2022-11-29T03:40:26.284Z,9.20
2022-11-29T03:41:32.961Z,9.20
2022-11-29T03:42:21.830Z,9.00
2022-11-29T03:43:11.501Z,9.10
2022-11-29T03:44:19.959Z,8.80
2022-11-29T03:45:25.417Z,9.10
2022-11-29T03:46:18.108Z,9.00
2022-11-29T03:47:10.317Z,8.90
2022-11-29T03:48:03.783Z,9.20
2022-11-29T03:48:51.739Z,8.90
2022-11-29T03:50:52.322Z,8.90
2022-11-29T03:51:50.828Z,8.90
2022-11-29T03:53:11.120Z,9.20
2022-11-29T03:54:03.747Z,8.80
2022-11-29T03:55:26.992Z,9.10
2022-11-29T03:56:29.177Z,9.10
2022-11-29T03:57:14.084Z,9.20
2022-11-29T03:59:17.632Z,9.20
2022-11-29T04:00:09.866Z,8.80
2022-11-29T04:01:30.431Z,9.10
2022-11-29T04:03:40.733Z,9.20
2022-11-29T04:04:41.117Z,9.30
2022-11-29T04:05:35.998Z,9.30
2022-11-29T04:06:54.404Z,9.40
2022-11-29T04:08:16.071Z,9.10
2022-11-29T04:09:03.817Z,9.30
2022-11-29T04:10:03.904Z,9.10
2022-11-29T04:11:25.437Z,9.20
2022-11-29T04:12:15.428Z,9.20
2022-11-29T04:13:31.920Z,8.80
2022-11-29T04:14:25.872Z,9.10
2022-11-29T04:15:15.833Z,9.20
2022-11-29T04:16:27.353Z,8.90
2022-11-29T04:18:24.836Z,8.80
2022-11-29T04:19:14.036Z,9.10
2022-11-29T04:20:04.887Z,9.50
2022-11-29T04:21:33.199Z,9.30
2022-11-29T04:22:43.454Z,9.30
2022-11-29T04:24:01.995Z,9.10
2022-11-29T04:24:52.280Z,9.40
2022-11-29T04:25:48.656Z,9.10
2022-11-29T04:26:45.419Z,9.20
2022-11-29T04:27:36.048Z,9.40
2022-11-29T04:29:41.120Z,9.00
2022-11-29T04:30:24.792Z,9.20
2022-11-29T04:31:36.912Z,8.90
2022-11-29T04:32:44.916Z,9.30
2022-11-29T04:33:46.304Z,9.30
2022-11-29T04:34:54.723Z,8.90
2022-11-29T04:36:33.837Z,8.90
2022-11-29T04:37:23.551Z,9.20
2022-11-29T04:38:13.676Z,9.30
2022-11-29T04:39:13.969Z,9.00
2022-11-29T04:39:55.571Z,9.30
2022-11-29T04:40:58.364Z,9.20
2022-11-29T04:42:41.628Z,9.10
2022-11-29T04:43:26.116Z,9.30
2022-11-29T04:44:16.124Z,9.00
2022-11-29T04:45:10.886Z,9.40
2022-11-29T04:46:09.045Z,8.90
2022-11-29T04:47:02.365Z,9.10
2022-11-29T04:47:49.742Z,8.90
2022-11-29T04:48:55.232Z,9.30
2022-11-29T04:49:49.073Z,8.90
2022-11-29T04:51:06.117Z,8.90
2022-11-29T04:52:23.941Z,9.00
2022-11-29T04:53:08.414Z,9.30
2022-11-29T04:53:56.499Z,9.50
2022-11-29T04:54:59.278Z,9.10
2022-11-29T04:55:59.383Z,8.90
2022-11-29T04:56:47.158Z,9.00
2022-11-29T04:57:51.800Z,9.40
2022-11-29T04:58:37.835Z,9.40
2022-11-29T05:00:08.122Z,9.40
2022-11-29T05:01:23.958Z,9.40
2022-11-29T05:02:18.852Z,9.00
2022-11-29T05:03:09.931Z,9.40
2022-11-29T05:04:31.725Z,9.00
2022-11-29T05:06:17.615Z,9.00
2022-11-29T05:08:01.685Z,9.00
2022-11-29T05:09:21.944Z,8.90
2022-11-29T05:10:36.417Z,9.40
2022-11-29T05:11:50.173Z,9.10
2022-11-29T05:12:42.804Z,9.40
2022-11-29T05:13:45.136Z,9.40
2022-11-29T05:14:57.476Z,9.50
2022-11-29T05:15:52.402Z,9.00
2022-11-29T05:16:48.483Z,9.20
2022-11-29T05:17:42.325Z,9.30
2022-11-29T05:18:43.352Z,8.90
2022-11-29T05:20:05.120Z,9.40
2022-11-29T05:20:57.336Z,9.60
2022-11-29T05:22:18.990Z,9.30
2022-11-29T05:23:19.048Z,9.30
2022-11-29T05:24:37.893Z,9.40
2022-11-29T05:25:52.528Z,9.30
2022-11-29T05:26:43.678Z,9.00
2022-11-29T05:27:45.552Z,9.40
2022-11-29T05:28:47.336Z,9.10
2022-11-29T05:29:34.042Z,9.00
2022-11-29T05:30:22.131Z,9.30
2022-11-29T05:31:30.625Z,9.50
2022-11-29T05:32:45.473Z,9.40
2022-11-29T05:33:36.831Z,9.40
2022-11-29T05:34:45.604Z,9.30
2022-11-29T05:36:00.046Z,9.10
2022-11-29T05:36:59.929Z,9.10
2022-11-29T05:37:50.814Z,9.30
2022-11-29T05:38:53.775Z,9.30
2022-11-29T05:40:08.673Z,9.20
2022-11-29T05:41:10.567Z,9.10
2022-11-29T05:41:57.466Z,9.30
2022-11-29T05:42:44.942Z,9.30
2022-11-29T05:44:11.599Z,9.00
2022-11-29T05:45:23.804Z,9.50
2022-11-29T05:46:21.491Z,9.50
2022-11-29T05:47:06.154Z,9.00
2022-11-29T05:48:45.631Z,9.10
2022-11-29T05:49:49.520Z,9.20
2022-11-29T05:51:38.657Z,9.20
2022-11-29T05:52:47.228Z,9.30
2022-11-29T05:53:37.243Z,9.50
2022-11-29T05:54:30.927Z,9.40
2022-11-29T05:55:15.265Z,9.50
2022-11-29T05:56:12.684Z,9.40
2022-11-29T05:57:02.800Z,8.90
2022-11-29T05:57:53.247Z,9.40
2022-11-29T05:59:09.258Z,9.10
2022-11-29T05:59:51.706Z,9.40
2022-11-29T06:01:01.710Z,8.80
2022-11-29T06:02:17.398Z,9.50
2022-11-29T06:03:09.660Z,9.40
2022-11-29T06:04:04.136Z,8.90
2022-11-29T06:04:48.817Z,9.00
2022-11-29T06:05:36.330Z,9.00
2022-11-29T06:07:02.548Z,9.20
2022-11-29T06:07:58.285Z,9.50
2022-11-29T06:08:45.705Z,9.00
2022-11-29T06:09:33.564Z,9.40
2022-11-29T06:10:19.728Z,9.40
2022-11-29T06:11:29.988Z,9.20
2022-11-29T06:12:21.182Z,9.20
2022-11-29T06:13:23.303Z,9.30
2022-11-29T06:14:20.153Z,8.90
2022-11-29T06:15:43.252Z,9.30
2022-11-29T06:16:42.275Z,9.10
2022-11-29T06:17:41.540Z,9.30
2022-11-29T06:18:48.780Z,9.20
2022-11-29T06:19:45.084Z,9.30
2022-11-29T06:21:00.062Z,9.40
2022-11-29T06:22:05.772Z,9.30
2022-11-29T06:22:55.896Z,9.20
2022-11-29T06:23:59.084Z,9.00
2022-11-29T06:24:53.410Z,9.20
2022-11-29T06:25:48.387Z,9.10
2022-11-29T06:27:17.908Z,9.10
2022-11-29T06:28:20.220Z,9.30
2022-11-29T06:29:19.156Z,9.10
2022-11-29T06:30:37.444Z,8.90
2022-11-29T06:31:48.154Z,9.10
2022-11-29T06:33:33.802Z,8.80
2022-11-29T06:34:29.143Z,9.20
2022-11-29T06:35:30.184Z,8.80
2022-11-29T06:36:15.965Z,9.20
2022-11-29T06:37:24.175Z,9.20
2022-11-29T06:38:26.287Z,9.10
2022-11-29T06:39:09.826Z,9.30
2022-11-29T06:39:51.725Z,9.10
2022-11-29T06:41:23.855Z,9.00
2022-11-29T06:42:05.529Z,9.10
2022-11-29T06:42:48.871Z,9.10
2022-11-29T06:43:31.301Z,9.40
2022-11-29T06:44:15.886Z,8.80
2022-11-29T06:45:45.963Z,9.00
2022-11-29T06:46:30.573Z,9.10
2022-11-29T06:47:53.079Z,9.10
2022-11-29T06:48:45.842Z,9.20
2022-11-29T06:49:57.971Z,8.60
2022-11-29T06:50:45.190Z,8.80
2022-11-29T06:51:59.903Z,9.10
2022-11-29T06:53:11.049Z,8.70
2022-11-29T06:54:16.481Z,9.10
2022-11-29T06:55:12.975Z,9.30
2022-11-29T06:56:24.263Z,9.20
2022-11-29T06:57:16.901Z,8.60
2022-11-29T06:58:22.319Z,9.00
2022-11-29T06:59:22.721Z,9.00
2022-11-29T07:00:19.464Z,8.90
2022-11-29T07:01:16.564Z,8.60
2022-11-29T07:02:12.721Z,8.70
2022-11-29T07:03:11.204Z,8.70
2022-11-29T07:04:18.644Z,8.70
2022-11-29T07:05:21.770Z,9.10
2022-11-29T07:06:20.753Z,8.60
2022-11-29T07:07:02.609Z,8.60
2022-11-29T07:07:44.858Z,9.00
2022-11-29T07:08:26.900Z,9.20
2022-11-29T07:10:09.343Z,8.70
2022-11-29T07:10:55.574Z,9.00
2022-11-29T07:11:37.764Z,8.80
2022-11-29T07:12:23.598Z,8.60
2022-11-29T07:13:05.542Z,9.20
2022-11-29T07:13:47.579Z,8.60
2022-11-29T07:14:29.510Z,8.60
2022-11-29T07:15:17.149Z,9.20
2022-11-29T07:16:14.265Z,8.60
2022-11-29T07:17:05.484Z,8.80
2022-11-29T07:18:11.001Z,8.70
2022-11-29T07:19:20.362Z,8.90
2022-11-29T07:20:08.312Z,9.10
2022-11-29T07:21:05.385Z,8.70
2022-11-29T07:22:01.442Z,8.70
2022-11-29T07:23:05.601Z,9.00
2022-11-29T07:24:04.802Z,9.10
2022-11-29T07:25:01.316Z,8.80
2022-11-29T07:26:03.658Z,9.10
2022-11-29T07:27:02.436Z,8.70
2022-11-29T07:28:50.278Z,9.10
2022-11-29T07:30:10.773Z,8.80
2022-11-29T07:31:16.515Z,9.10
2022-11-29T07:32:19.257Z,9.10
2022-11-29T07:33:21.213Z,9.10
2022-11-29T07:34:28.275Z,8.70
2022-11-29T07:36:42.523Z,9.00
2022-11-29T07:37:54.372Z,9.00
2022-11-29T07:39:02.378Z,9.40
2022-11-29T07:40:04.074Z,9.00
2022-11-29T07:40:48.774Z,8.80
2022-11-29T07:41:58.002Z,8.90
2022-11-29T07:42:42.437Z,9.10
2022-11-29T07:43:50.112Z,8.70
2022-11-29T07:44:58.052Z,9.00
2022-11-29T07:45:39.928Z,9.10
2022-11-29T07:46:21.618Z,8.90
2022-11-29T07:47:03.404Z,9.10
2022-11-29T07:47:47.678Z,8.90
2022-11-29T07:49:14.340Z,9.60
2022-11-29T07:49:56.044Z,8.80
2022-11-29T07:50:38.125Z,8.90
2022-11-29T07:51:19.851Z,9.10
2022-11-29T07:52:04.328Z,9.10
2022-11-29T07:52:46.849Z,9.10
2022-11-29T07:53:31.171Z,9.20
2022-11-29T07:54:17.702Z,9.20
2022-11-29T07:54:59.361Z,9.20
2022-11-29T07:55:41.056Z,9.00
2022-11-29T07:56:22.697Z,9.10
2022-11-29T07:57:04.504Z,8.70
2022-11-29T07:57:46.915Z,9.10
2022-11-29T07:58:29.254Z,9.10
2022-11-29T07:59:12.421Z,8.70
2022-11-29T07:59:54.061Z,9.10
2022-11-29T08:00:35.754Z,9.30
2022-11-29T08:01:17.448Z,9.10
2022-11-29T08:01:59.245Z,9.20
2022-11-29T08:02:41.540Z,8.80
2022-11-29T08:03:23.633Z,8.80
2022-11-29T08:04:06.138Z,9.10
2022-11-29T08:04:48.025Z,9.00
2022-11-29T08:05:29.891Z,8.80
2022-11-29T08:06:11.744Z,8.80
2022-11-29T08:06:53.512Z,8.80
2022-11-29T08:07:38.675Z,9.00
2022-11-29T08:08:20.489Z,9.20
2022-11-29T08:09:03.103Z,9.10
2022-11-29T08:09:44.970Z,9.10
2022-11-29T08:10:27.624Z,8.60
2022-11-29T08:11:14.176Z,9.00
2022-11-29T08:11:55.875Z,8.60
2022-11-29T08:12:46.153Z,9.00
2022-11-29T08:13:27.815Z,9.10
2022-11-29T08:14:09.531Z,9.00
2022-11-29T08:15:33.387Z,9.10
2022-11-29T08:16:21.164Z,9.10
2022-11-29T08:17:02.815Z,9.30
2022-11-29T08:17:44.556Z,8.70
2022-11-29T08:18:26.558Z,8.80
2022-11-29T08:19:09.474Z,8.90
2022-11-29T08:19:53.377Z,8.80
2022-11-29T08:20:38.679Z,8.80
2022-11-29T08:21:22.930Z,8.80
2022-11-29T08:22:07.147Z,8.70
2022-11-29T08:22:59.462Z,8.90
2022-11-29T08:23:41.186Z,8.90
2022-11-29T08:24:23.000Z,8.80
2022-11-29T08:25:09.775Z,8.70
2022-11-29T08:26:01.308Z,9.20
2022-11-29T08:26:43.021Z,9.00
2022-11-29T08:27:24.715Z,9.30
2022-11-29T08:28:06.832Z,8.90
2022-11-29T08:28:52.271Z,9.10
2022-11-29T08:29:33.979Z,9.00
2022-11-29T08:30:18.681Z,9.30
2022-11-29T08:31:02.603Z,8.80
2022-11-29T08:31:45.246Z,9.20
2022-11-29T08:32:27.574Z,8.90
2022-11-29T08:33:09.274Z,9.10
2022-11-29T08:33:50.952Z,8.80
2022-11-29T08:34:32.604Z,9.20
2022-11-29T08:35:14.409Z,8.80
2022-11-29T08:35:56.427Z,9.00
2022-11-29T08:36:38.352Z,8.80
2022-11-29T08:37:20.008Z,9.10
2022-11-29T08:38:01.797Z,9.10
2022-11-29T08:38:44.117Z,9.20
2022-11-29T08:39:25.751Z,8.90
2022-11-29T08:40:08.122Z,8.90
2022-11-29T08:40:49.848Z,9.00
2022-11-29T08:41:31.565Z,9.00
2022-11-29T08:42:16.004Z,9.20
2022-11-29T08:42:58.564Z,8.80
2022-11-29T08:43:42.583Z,8.80
2022-11-29T08:44:24.234Z,8.80
2022-11-29T08:45:06.953Z,9.10
2022-11-29T08:45:52.593Z,9.00
2022-11-29T08:46:52.852Z,8.90
2022-11-29T08:47:37.667Z,8.90
2022-11-29T08:53:05.157Z,9.10
2022-11-29T08:53:51.543Z,8.80
2022-11-29T08:54:33.190Z,8.80
2022-11-29T08:55:15.578Z,9.30
2022-11-29T08:56:00.035Z,8.80
2022-11-29T08:57:43.405Z,9.20
2022-11-29T08:58:25.671Z,9.20
2022-11-29T08:59:07.425Z,9.30
2022-11-29T08:59:49.078Z,9.00
2022-11-29T09:00:31.986Z,9.30
2022-11-29T09:01:18.727Z,9.10
2022-11-29T09:02:00.504Z,9.00
2022-11-29T09:02:42.358Z,9.00
2022-11-29T09:03:42.786Z,9.40
2022-11-29T09:04:30.316Z,9.30
2022-11-29T09:05:54.299Z,9.20
2022-11-29T09:06:42.812Z,9.20
2022-11-29T09:07:24.498Z,9.10
2022-11-29T09:08:06.191Z,9.00
2022-11-29T09:08:47.856Z,9.20
2022-11-29T09:09:29.498Z,9.40
2022-11-29T09:10:13.980Z,8.90
2022-11-29T09:10:55.653Z,9.20
2022-11-29T09:11:37.416Z,9.20
2022-11-29T09:13:01.163Z,9.00
2022-11-29T09:13:46.815Z,9.30
2022-11-29T09:14:28.809Z,9.10
2022-11-29T09:15:11.219Z,9.40
2022-11-29T09:15:55.670Z,9.40
2022-11-29T09:16:38.280Z,9.60
2022-11-29T09:17:19.956Z,9.40
2022-11-29T09:18:01.615Z,9.40
2022-11-29T09:18:48.518Z,9.30
2022-11-29T09:19:33.212Z,9.40
2022-11-29T09:20:14.957Z,8.80
2022-11-29T09:20:56.635Z,9.40
2022-11-29T09:21:38.296Z,9.00
2022-11-29T09:22:22.602Z,9.00
2022-11-29T09:23:04.287Z,9.10
2022-11-29T09:24:28.636Z,9.40
2022-11-29T09:25:10.286Z,8.90
2022-11-29T09:25:53.449Z,9.30
2022-11-29T09:26:37.874Z,9.40
2022-11-29T09:27:19.585Z,9.30
2022-11-29T09:28:45.427Z,9.20
2022-11-29T09:29:27.171Z,9.00
2022-11-29T09:34:28.468Z,9.10
2022-11-29T09:35:10.169Z,9.50
2022-11-29T09:35:52.057Z,9.60
2022-11-29T09:36:33.848Z,9.30
2022-11-29T09:37:15.624Z,9.50
2022-11-29T09:37:57.320Z,9.10
2022-11-29T09:38:39.233Z,9.60
2022-11-29T09:39:21.255Z,9.40
2022-11-29T09:40:04.892Z,9.50
2022-11-29T09:40:53.889Z,9.10
2022-11-29T09:41:56.267Z,9.50
2022-11-29T09:43:06.694Z,9.20
2022-11-29T09:44:25.638Z,8.90
2022-11-29T09:45:11.627Z,9.40
2022-11-29T09:46:22.601Z,9.00
2022-11-29T09:47:24.563Z,9.50
2022-11-29T09:48:33.736Z,9.10
2022-11-29T09:49:24.003Z,9.50
2022-11-29T09:50:11.890Z,9.20
2022-11-29T09:51:14.457Z,9.30
2022-11-29T09:52:07.683Z,9.40
2022-11-29T09:53:21.757Z,9.90
2022-11-29T09:54:37.004Z,9.60
2022-11-29T09:55:49.243Z,9.10
2022-11-29T09:56:40.671Z,9.50
2022-11-29T09:57:24.931Z,9.50
2022-11-29T09:58:15.032Z,9.40
2022-11-29T09:59:17.479Z,9.40
2022-11-29T10:00:04.503Z,9.40
2022-11-29T10:00:50.062Z,9.40
2022-11-29T10:01:40.168Z,9.60
2022-11-29T10:02:43.811Z,9.20
2022-11-29T10:03:42.113Z,9.30
2022-11-29T10:04:29.558Z,9.50
2022-11-29T10:05:26.020Z,9.30
2022-11-29T10:06:16.131Z,9.40
2022-11-29T10:07:07.316Z,9.40
2022-11-29T10:08:11.805Z,9.30
2022-11-29T10:08:56.621Z,9.60
2022-11-29T10:10:03.616Z,9.40
2022-11-29T10:10:48.351Z,9.50
2022-11-29T10:11:53.390Z,9.40
2022-11-29T10:12:52.388Z,9.20
2022-11-29T10:13:36.265Z,9.50
2022-11-29T10:14:22.744Z,9.30
2022-11-29T10:15:18.814Z,9.60
2022-11-29T10:16:24.615Z,9.30
2022-11-29T10:17:32.611Z,9.40
2022-11-29T10:18:22.353Z,9.60
2022-11-29T10:19:15.120Z,9.60
2022-11-29T10:20:07.091Z,9.20
2022-11-29T10:20:51.456Z,9.80
2022-11-29T10:21:38.305Z,9.70
2022-11-29T10:22:41.473Z,9.90
2022-11-29T10:23:41.726Z,9.60
2022-11-29T10:24:25.625Z,9.80
2022-11-29T10:25:17.862Z,10.00
2022-11-29T10:25:59.746Z,9.80
2022-11-29T10:26:43.435Z,12.70
2022-11-29T10:27:29.435Z,10.00
2022-11-29T10:28:15.686Z,9.90
2022-11-29T10:28:57.983Z,9.60
2022-11-29T10:29:39.714Z,9.60
2022-11-29T10:30:21.952Z,9.50
2022-11-29T10:31:22.163Z,9.90
2022-11-29T10:32:13.822Z,9.90
2022-11-29T10:32:58.752Z,9.80
2022-11-29T10:33:41.322Z,9.90
2022-11-29T10:34:25.381Z,9.90
2022-11-29T10:35:14.722Z,9.50
2022-11-29T10:36:00.251Z,9.50
2022-11-29T10:36:48.344Z,9.80
2022-11-29T10:37:32.715Z,9.90
2022-11-29T10:38:30.289Z,9.90
2022-11-29T10:39:53.055Z,9.80
2022-11-29T10:40:37.874Z,10.20
2022-11-29T10:41:25.454Z,9.70
2022-11-29T10:42:34.944Z,10.00
2022-11-29T10:43:19.544Z,9.70
2022-11-29T10:44:01.907Z,9.80
2022-11-29T10:44:44.122Z,9.90
2022-11-29T10:45:34.968Z,9.70
2022-11-29T10:46:26.832Z,10.00
2022-11-29T10:47:11.198Z,9.90
2022-11-29T10:48:01.826Z,9.90
2022-11-29T10:48:43.735Z,10.00
2022-11-29T10:49:28.892Z,10.00
2022-11-29T10:50:21.333Z,10.00
2022-11-29T10:51:03.257Z,10.00
2022-11-29T10:51:46.394Z,9.70
2022-11-29T10:52:30.834Z,9.90
2022-11-29T10:53:19.794Z,9.80
2022-11-29T10:54:26.642Z,9.90
2022-11-29T10:55:14.640Z,9.90
2022-11-29T10:56:13.724Z,9.90
2022-11-29T10:56:59.091Z,9.90
2022-11-29T10:58:12.869Z,9.80
2022-11-29T10:58:56.889Z,10.00
2022-11-29T10:59:38.611Z,9.60
2022-11-29T11:00:20.444Z,9.80
2022-11-29T11:01:07.654Z,9.80
2022-11-29T11:01:50.580Z,10.00
2022-11-29T11:02:32.753Z,10.10
2022-11-29T11:03:25.347Z,9.90
2022-11-29T11:04:12.019Z,10.10
2022-11-29T11:04:55.064Z,9.50
2022-11-29T11:06:44.160Z,10.00
2022-11-29T11:07:35.047Z,10.00
2022-11-29T11:08:18.242Z,10.10
2022-11-29T11:09:26.968Z,10.20
2022-11-29T11:10:29.551Z,10.10
2022-11-29T11:11:12.359Z,10.30
2022-11-29T11:11:57.733Z,10.40
2022-11-29T11:12:39.766Z,10.00
2022-11-29T11:13:25.324Z,10.40
2022-11-29T11:14:26.747Z,10.20
2022-11-29T11:15:34.703Z,10.30
2022-11-29T11:16:24.144Z,10.30
2022-11-29T11:17:26.382Z,10.20
2022-11-29T11:18:20.783Z,10.30
2022-11-29T11:19:32.186Z,10.10
2022-11-29T11:20:22.740Z,10.40
2022-11-29T11:21:07.896Z,10.50
2022-11-29T11:21:53.206Z,10.30
2022-11-29T11:22:39.262Z,10.10
2022-11-29T11:23:27.307Z,10.40
2022-11-29T11:24:24.693Z,10.20
2022-11-29T11:25:34.623Z,10.60
2022-11-29T11:27:01.680Z,10.20
2022-11-29T11:27:43.426Z,10.20
2022-11-29T11:28:31.757Z,10.10
2022-11-29T11:29:19.792Z,10.10
2022-11-29T11:30:05.929Z,10.00
2022-11-29T11:31:01.505Z,10.00
2022-11-29T11:32:27.791Z,10.40
2022-11-29T11:33:23.718Z,10.20
2022-11-29T11:34:24.997Z,10.40
2022-11-29T11:35:23.662Z,10.30
2022-11-29T11:36:13.516Z,10.10
2022-11-29T11:37:17.498Z,10.20
2022-11-29T11:37:59.225Z,10.60
2022-11-29T11:38:49.598Z,10.20
2022-11-29T11:39:32.543Z,10.40
2022-11-29T11:40:29.974Z,10.50
2022-11-29T11:41:23.832Z,10.40
2022-11-29T11:42:24.367Z,10.60
2022-11-29T11:43:13.240Z,10.00
2022-11-29T11:44:04.536Z,10.50
2022-11-29T11:45:36.673Z,10.30
2022-11-29T11:46:18.490Z,10.10
2022-11-29T11:47:01.797Z,10.50
2022-11-29T11:47:50.921Z,10.40
2022-11-29T11:48:36.119Z,10.10
2022-11-29T11:49:28.334Z,10.10
2022-11-29T11:50:16.453Z,10.50
2022-11-29T11:51:00.443Z,10.00
2022-11-29T11:51:44.011Z,10.00
2022-11-29T11:53:06.218Z,10.30
2022-11-29T11:53:52.367Z,11.70
2022-11-29T11:54:34.269Z,10.00
2022-11-29T11:55:21.783Z,10.00
2022-11-29T11:56:10.337Z,10.00
2022-11-29T11:58:21.346Z,10.00
2022-11-29T11:59:03.809Z,9.90
2022-11-29T11:59:49.538Z,10.40
2022-11-29T12:01:09.149Z,10.10
2022-11-29T12:01:51.699Z,10.00
2022-11-29T12:02:37.918Z,10.10
2022-11-29T12:03:44.376Z,10.50
2022-11-29T12:04:36.226Z,10.40
2022-11-29T12:05:20.083Z,10.30
2022-11-29T12:06:35.134Z,10.40
2022-11-29T12:08:06.239Z,10.10
2022-11-29T12:08:37.988Z,10.70
2022-11-29T12:09:56.114Z,10.20
2022-11-29T12:10:40.427Z,10.30
2022-11-29T12:11:23.984Z,10.30
2022-11-29T12:12:26.804Z,10.60
2022-11-29T12:13:30.296Z,10.30
2022-11-29T12:14:41.865Z,10.30
2022-11-29T12:15:29.451Z,10.50
2022-11-29T12:16:19.825Z,10.50
2022-11-29T12:17:09.546Z,10.30